Time;durP1;ratioP1;P1;durP2;ratioP2;P2;SDS_P1;SDS_P2;PMS_P1;PMS_P2;Temp;Humidity;BMP_temperature;BMP_pressure;BME280_temperature;BME280_humidity;BME280_pressure;Samples;Min_cycle;Max_cycle;Signal;HPM_P1;HPM_P2
2023/12/12 00:00:29;;;;;;;;;22.00;21.25;;;;;14.16;91.44;100517.88;5048470;28;47728;-67
2023/12/12 00:02:54;;;;;;;;;21.75;21.75;;;;;14.11;91.42;100512.75;5021809;28;45650;-67
2023/12/12 00:05:20;;;;;;;;;18.00;17.00;;;;;14.07;91.71;100487.03;5032866;28;45427;-67
2023/12/12 00:07:45;;;;;;;;;21.50;19.75;;;;;14.15;91.81;100483.94;5041313;28;65330;-67
2023/12/12 00:10:10;;;;;;;;;19.50;17.00;;;;;14.14;91.83;100492.94;5029705;28;76188;-67
2023/12/12 00:12:36;;;;;;;;;22.00;19.75;;;;;14.17;91.66;100512.44;5040377;28;46320;-67
2023/12/12 00:15:01;;;;;;;;;19.75;16.75;;;;;14.22;91.76;100509.53;5051911;28;65517;-67
2023/12/12 00:17:26;;;;;;;;;18.50;17.75;;;;;14.18;91.73;100508.81;5055420;28;55065;-67
2023/12/12 00:19:51;;;;;;;;;21.75;19.50;;;;;14.25;91.85;100515.59;5047859;28;62426;-67
2023/12/12 00:22:17;;;;;;;;;18.25;16.50;;;;;14.19;92.25;100501.63;5044937;28;45502;-67
2023/12/12 00:24:42;;;;;;;;;18.75;16.25;;;;;14.12;92.40;100478.75;5031690;28;45409;-67
2023/12/12 00:27:07;;;;;;;;;18.25;17.25;;;;;14.13;92.01;100472.41;5037736;28;66105;-67
2023/12/12 00:29:35;;;;;;;;;18.75;17.75;;;;;14.22;92.23;100486.22;5057404;28;57587;-67
2023/12/12 00:32:01;;;;;;;;;19.00;17.50;;;;;14.29;92.50;100491.28;5056380;28;45482;-67
2023/12/12 00:34:26;;;;;;;;;21.50;21.25;;;;;14.26;92.64;100487.78;5040974;28;45421;-67
2023/12/12 00:36:52;;;;;;;;;21.25;16.25;;;;;14.30;92.46;100493.00;5050405;28;58213;-67
2023/12/12 00:39:17;;;;;;;;;19.25;18.25;;;;;14.33;92.33;100482.13;5057963;28;46105;-67
2023/12/12 00:41:42;;;;;;;;;19.25;18.00;;;;;14.26;92.51;100466.31;5038866;28;59631;-67
2023/12/12 00:44:07;;;;;;;;;23.75;20.25;;;;;14.17;92.28;100442.66;5037760;28;65092;-67
2023/12/12 00:46:34;;;;;;;;;20.75;20.50;;;;;14.33;92.59;100456.13;5038474;28;45391;-67
2023/12/12 00:48:59;;;;;;;;;20.75;18.75;;;;;14.37;92.61;100470.28;5038516;28;46233;-67
2023/12/12 00:51:24;;;;;;;;;21.00;16.50;;;;;14.30;92.49;100453.63;5041621;28;45526;-67
2023/12/12 00:53:50;;;;;;;;;18.25;17.25;;;;;14.31;92.77;100449.97;5048976;28;46985;-67
2023/12/12 00:56:15;;;;;;;;;21.75;16.50;;;;;14.32;92.64;100450.88;5036734;28;45475;-67
2023/12/12 00:58:40;;;;;;;;;25.00;21.75;;;;;14.32;92.74;100448.19;5058217;28;45414;-67
2023/12/12 01:01:05;;;;;;;;;21.25;19.75;;;;;14.36;92.74;100447.91;5040503;28;45304;-67
2023/12/12 01:03:31;;;;;;;;;20.50;19.50;;;;;14.30;92.70;100437.50;5050228;28;45378;-67
2023/12/12 01:05:56;;;;;;;;;20.75;19.25;;;;;14.40;92.99;100443.25;5057539;28;52455;-67
2023/12/12 01:08:21;;;;;;;;;18.00;15.25;;;;;14.22;93.06;100426.31;5054234;28;45359;-67
2023/12/12 01:10:47;;;;;;;;;18.00;16.25;;;;;14.38;92.93;100446.03;5043139;28;59342;-67
2023/12/12 01:13:12;;;;;;;;;17.25;16.50;;;;;14.30;92.91;100437.50;5048625;28;45449;-67
2023/12/12 01:15:37;;;;;;;;;16.75;16.00;;;;;14.34;93.20;100433.72;5041689;28;45479;-67
2023/12/12 01:18:03;;;;;;;;;7.00;7.00;;;;;14.33;93.15;100429.28;5033143;28;61232;-67
2023/12/12 01:20:28;;;;;;;;;16.75;16.25;;;;;14.36;93.20;100431.78;5074623;28;62873;-67
2023/12/12 01:22:53;;;;;;;;;14.25;14.25;;;;;14.40;93.05;100437.88;5053373;28;58405;-67
2023/12/12 01:25:18;;;;;;;;;19.00;17.25;;;;;14.43;93.28;100427.84;5040939;28;61001;-67
2023/12/12 01:27:44;;;;;;;;;16.50;14.00;;;;;14.44;93.09;100426.03;5047281;28;45962;-67
2023/12/12 01:30:10;;;;;;;;;18.50;15.75;;;;;14.39;93.27;100425.41;5043143;28;45734;-67
2023/12/12 01:32:35;;;;;;;;;19.25;17.50;;;;;14.36;93.39;100415.69;5054630;28;45738;-67
2023/12/12 01:35:01;;;;;;;;;21.00;18.50;;;;;14.43;93.61;100416.22;5048607;28;45465;-67
2023/12/12 01:37:26;;;;;;;;;21.75;21.75;;;;;14.44;93.62;100415.28;5043379;28;47231;-67
2023/12/12 01:39:51;;;;;;;;;20.25;18.50;;;;;14.41;93.53;100405.56;5059902;28;45421;-67
2023/12/12 01:42:17;;;;;;;;;20.75;16.00;;;;;14.49;93.34;100420.41;5046078;28;45430;-67
2023/12/12 01:44:42;;;;;;;;;20.00;17.25;;;;;14.49;93.13;100417.72;5045789;28;61061;-67
2023/12/12 01:47:09;;;;;;;;;18.25;15.50;;;;;14.37;93.65;100401.31;5031478;28;47844;-67
2023/12/12 01:49:35;;;;;;;;;19.00;18.25;;;;;14.44;93.18;100415.28;5046044;28;45680;-67
2023/12/12 01:52:00;;;;;;;;;20.25;19.75;;;;;14.46;93.55;100414.25;5024296;28;45346;-67
2023/12/12 01:54:26;;;;;;;;;17.50;16.50;;;;;14.54;93.56;100423.72;5054582;28;45327;-67
2023/12/12 01:56:53;;;;;;;;;15.00;14.00;;;;;14.51;93.64;100423.88;5046326;28;45421;-67
2023/12/12 01:59:21;;;;;;;;;20.75;18.25;;;;;14.53;93.35;100430.88;5059038;28;45311;-67
2023/12/12 02:01:48;;;;;;;;;18.00;16.75;;;;;14.50;93.45;100416.75;5041251;28;45497;-67
2023/12/12 02:04:14;;;;;;;;;20.50;17.00;;;;;14.53;93.61;100411.22;5025746;28;45466;-67
2023/12/12 02:06:41;;;;;;;;;19.25;18.50;;;;;14.52;93.45;100404.16;5041954;28;45619;-67
2023/12/12 02:09:06;;;;;;;;;18.75;17.00;;;;;14.53;93.50;100411.22;5045843;28;45319;-67
2023/12/12 02:11:32;;;;;;;;;16.25;15.25;;;;;14.54;93.46;100408.47;5081532;28;45320;-67
2023/12/12 02:13:57;;;;;;;;;17.25;13.50;;;;;14.57;93.69;100405.63;5029409;28;45484;-67
2023/12/12 02:16:22;;;;;;;;;17.50;17.50;;;;;14.45;93.44;100377.63;5070279;28;46479;-67
2023/12/12 02:18:47;;;;;;;;;14.50;14.50;;;;;14.46;93.57;100378.47;5050688;28;45376;-67
2023/12/12 02:21:19;;;;;;;;;16.75;16.75;;;;;14.51;93.69;100368.34;5053300;28;45304;-67
2023/12/12 02:23:47;;;;;;;;;15.50;14.50;;;;;14.46;93.76;100357.84;5040670;28;45562;-67
2023/12/12 02:26:12;;;;;;;;;9.00;9.00;;;;;14.57;93.72;100373.38;5040678;28;46058;-67
2023/12/12 02:28:39;;;;;;;;;15.00;13.50;;;;;14.58;93.49;100372.44;5040443;28;45442;-67
2023/12/12 02:31:04;;;;;;;;;12.25;11.75;;;;;14.49;93.64;100347.91;5040927;28;45304;-67
2023/12/12 02:33:30;;;;;;;;;11.50;11.50;;;;;14.49;93.55;100347.91;5036936;28;45551;-67
2023/12/12 02:35:55;;;;;;;;;10.75;10.25;;;;;14.51;93.45;100365.66;5051498;28;56340;-68
2023/12/12 02:38:20;;;;;;;;;11.50;11.00;;;;;14.53;93.80;100362.88;5046803;28;50331;-67
2023/12/12 02:40:45;;;;;;;;;9.50;9.50;;;;;14.35;93.66;100335.22;5069487;28;46015;-67
2023/12/12 02:43:11;;;;;;;;;8.25;8.00;;;;;14.51;93.85;100356.75;5051365;28;69333;-67
2023/12/12 02:45:36;;;;;;;;;9.00;9.00;;;;;14.48;93.92;100348.84;5031024;28;48033;-67
2023/12/12 02:48:01;;;;;;;;;12.00;8.50;;;;;14.51;94.11;100344.16;5026569;28;47955;-67
2023/12/12 02:50:27;;;;;;;;;11.25;10.00;;;;;14.49;93.80;100331.78;5049683;28;45493;-67
2023/12/12 02:52:52;;;;;;;;;10.75;10.00;;;;;14.46;94.08;100319.38;5043083;28;59717;-67
2023/12/12 02:55:17;;;;;;;;;9.25;8.75;;;;;14.52;93.75;100313.69;5053517;28;55681;-67
2023/12/12 02:57:43;;;;;;;;;11.25;11.00;;;;;14.53;93.40;100310.03;5037903;28;46000;-67
2023/12/12 03:00:09;;;;;;;;;8.25;8.00;;;;;14.38;93.55;100282.25;5051512;28;45506;-67
2023/12/12 03:02:34;;;;;;;;;6.25;6.25;;;;;14.43;93.90;100293.59;5038086;28;45563;-67
2023/12/12 03:05:00;;;;;;;;;10.25;9.25;;;;;14.50;93.46;100296.81;5069292;28;46135;-67
2023/12/12 03:07:25;;;;;;;;;8.50;8.25;;;;;14.51;93.71;100303.03;5064243;28;45370;-67
2023/12/12 03:09:50;;;;;;;;;8.00;7.75;;;;;14.49;93.51;100296.88;5059432;28;60596;-67
2023/12/12 03:12:16;;;;;;;;;8.00;7.00;;;;;14.46;93.70;100301.44;5057431;28;45287;-67
2023/12/12 03:14:41;;;;;;;;;6.50;6.50;;;;;14.51;93.73;100311.09;5031088;28;48219;-67
2023/12/12 03:17:07;;;;;;;;;6.00;4.75;;;;;14.45;93.82;100297.06;5057558;28;45268;-67
2023/12/12 03:19:32;;;;;;;;;6.75;5.75;;;;;14.52;93.37;100302.09;5029141;28;45513;-67
2023/12/12 03:21:57;;;;;;;;;6.50;4.50;;;;;14.53;93.67;100299.28;5046271;28;45344;-67
2023/12/12 03:24:23;;;;;;;;;6.25;4.75;;;;;14.49;93.58;100283.47;5039808;28;45990;-67
2023/12/12 03:26:48;;;;;;;;;4.75;4.75;;;;;14.51;93.57;100285.09;5039086;28;60023;-67
2023/12/12 03:29:13;;;;;;;;;6.50;6.50;;;;;14.42;93.05;100258.78;5039946;28;45343;-67
2023/12/12 03:31:39;;;;;;;;;6.00;4.00;;;;;14.53;93.33;100266.19;5039201;28;45384;-67
2023/12/12 03:34:05;;;;;;;;;4.50;4.50;;;;;14.44;93.68;100252.34;5039814;28;46064;-67
2023/12/12 03:36:30;;;;;;;;;4.25;4.25;;;;;14.46;93.70;100257.63;5039711;28;45316;-68
2023/12/12 03:38:56;;;;;;;;;6.00;4.00;;;;;14.40;93.58;100245.44;5054706;28;45411;-67
2023/12/12 03:41:23;;;;;;;;;3.00;3.00;;;;;14.48;93.29;100252.16;5027512;28;45629;-67
2023/12/12 03:43:48;;;;;;;;;4.00;4.00;;;;;14.40;93.56;100231.09;5039555;28;46110;-67
2023/12/12 03:46:15;;;;;;;;;4.50;4.50;;;;;14.45;93.86;100245.19;5039457;28;45396;-67
2023/12/12 03:48:40;;;;;;;;;4.00;4.00;;;;;14.50;93.85;100248.47;5039909;28;45335;-67
2023/12/12 03:51:09;;;;;;;;;5.00;4.00;;;;;14.45;93.54;100240.66;5042574;28;58858;-67
2023/12/12 03:53:35;;;;;;;;;6.00;6.00;;;;;14.40;94.14;100232.00;5016797;28;47155;-67
2023/12/12 03:56:00;;;;;;;;;5.75;5.75;;;;;14.42;94.11;100230.09;5052691;28;45284;-67
2023/12/12 03:58:26;;;;;;;;;6.00;6.00;;;;;14.43;93.91;100223.78;5057736;28;45524;-67
2023/12/12 04:00:51;;;;;;;;;8.00;7.50;;;;;14.46;94.23;100217.34;5040713;28;59768;-67
2023/12/12 04:03:16;;;;;;;;;6.75;6.75;;;;;14.37;93.97;100201.78;5050913;28;51540;-67
2023/12/12 04:05:42;;;;;;;;;10.00;8.00;;;;;14.51;94.00;100222.47;5038300;28;65075;-67
2023/12/12 04:08:08;;;;;;;;;7.00;7.00;;;;;14.49;94.20;100214.50;5041394;28;45646;-67
2023/12/12 04:10:33;;;;;;;;;6.50;6.50;;;;;14.44;94.04;100208.53;5036026;28;45450;-67
2023/12/12 04:12:59;;;;;;;;;7.00;6.00;;;;;14.43;94.24;100201.41;5040141;28;67924;-67
2023/12/12 04:15:24;;;;;;;;;6.50;6.50;;;;;14.51;94.01;100215.25;5057662;28;45478;-67
2023/12/12 04:17:50;;;;;;;;;8.25;7.75;;;;;14.45;94.32;100197.69;5039162;28;45459;-67
2023/12/12 04:20:15;;;;;;;;;7.00;6.00;;;;;14.51;94.15;100214.41;5034100;28;45450;-67
2023/12/12 04:22:40;;;;;;;;;7.75;7.75;;;;;14.53;94.28;100221.41;5052754;28;45386;-67
2023/12/12 04:25:06;;;;;;;;;6.75;6.75;;;;;14.47;93.92;100202.97;5038250;28;64592;-67
2023/12/12 04:27:32;;;;;;;;;10.75;10.00;;;;;14.49;94.02;100198.38;5034176;28;45517;-67
2023/12/12 04:29:57;;;;;;;;;21.25;19.50;;;;;14.46;94.23;100179.75;5047564;28;45345;-67
2023/12/12 04:32:22;;;;;;;;;73.00;59.25;;;;;14.53;94.13;100174.88;5051750;28;55321;-67
2023/12/12 04:34:48;;;;;;;;;85.00;75.75;;;;;14.55;94.13;100184.59;5033778;28;45332;-67
2023/12/12 04:37:14;;;;;;;;;59.25;46.75;;;;;14.61;94.49;100189.63;5055332;28;45410;-67
2023/12/12 04:39:39;;;;;;;;;41.00;35.75;;;;;14.55;94.57;100181.91;5058738;28;45287;-67
2023/12/12 04:42:05;;;;;;;;;39.00;32.75;;;;;14.51;94.42;100174.13;5037706;28;45395;-68
2023/12/12 04:44:30;;;;;;;;;39.75;33.75;;;;;14.58;94.44;100183.53;5038775;28;45279;-67
2023/12/12 04:46:56;;;;;;;;;51.75;44.00;;;;;14.62;94.73;100174.41;5038547;28;45593;-67
2023/12/12 04:49:21;;;;;;;;;49.00;40.50;;;;;14.62;94.77;100172.56;5023102;28;45619;-67
2023/12/12 04:51:46;;;;;;;;;32.00;27.50;;;;;14.62;94.83;100179.78;5039327;28;46113;-67
2023/12/12 04:54:12;;;;;;;;;31.75;28.75;;;;;14.41;94.78;100146.94;5033859;28;45408;-67
2023/12/12 04:56:37;;;;;;;;;26.25;25.25;;;;;14.58;95.04;100178.19;5024015;28;45443;-67
2023/12/12 04:59:02;;;;;;;;;25.75;23.00;;;;;14.66;94.60;100180.47;5058168;28;45412;-67
2023/12/12 05:01:28;;;;;;;;;18.00;16.50;;;;;14.65;94.96;100168.84;5027249;28;47346;-68
2023/12/12 05:03:53;;;;;;;;;11.75;11.00;;;;;14.54;95.07;100161.38;5040318;28;45399;-67
2023/12/12 05:06:18;;;;;;;;;13.75;9.25;;;;;14.60;95.40;100162.84;5038450;28;45385;-67
2023/12/12 05:08:44;;;;;;;;;7.75;7.50;;;;;14.52;95.15;100149.00;5042443;28;45363;-68
2023/12/12 05:11:13;;;;;;;;;9.25;9.25;;;;;14.61;95.39;100167.28;5039936;28;47312;-67
2023/12/12 05:13:38;;;;;;;;;8.75;8.00;;;;;14.62;95.46;100153.78;5057878;28;45315;-67
2023/12/12 05:16:06;;;;;;;;;6.75;6.75;;;;;14.56;95.46;100143.34;5037911;28;55045;-67
2023/12/12 05:18:31;;;;;;;;;6.50;6.50;;;;;14.57;95.29;100152.28;5033338;28;45814;-67
2023/12/12 05:20:57;;;;;;;;;9.00;7.75;;;;;14.62;95.26;100152.91;5038483;28;71171;-67
2023/12/12 05:23:22;;;;;;;;;7.75;7.75;;;;;14.56;95.58;100150.53;5032148;28;45454;-68
2023/12/12 05:25:49;;;;;;;;;7.00;7.00;;;;;14.48;95.30;100129.50;5052508;28;45534;-67
2023/12/12 05:28:16;;;;;;;;;7.75;7.00;;;;;14.65;95.49;100155.44;5037872;28;45871;-67
2023/12/12 05:30:42;;;;;;;;;9.00;9.00;;;;;14.59;95.43;100128.91;5038007;28;45420;-67
2023/12/12 05:33:07;;;;;;;;;8.75;7.50;;;;;14.58;95.51;100122.66;5038002;28;45390;-67
2023/12/12 05:35:32;;;;;;;;;6.00;6.00;;;;;14.60;95.49;100136.88;5037130;28;64523;-67
2023/12/12 05:37:58;;;;;;;;;8.00;8.00;;;;;14.67;95.77;100145.44;5031694;28;72265;-67
2023/12/12 05:40:23;;;;;;;;;8.50;7.50;;;;;14.59;95.68;100129.78;5051698;28;46875;-67
2023/12/12 05:42:48;;;;;;;;;7.00;7.00;;;;;14.62;95.81;100129.59;5037604;28;45418;-67
2023/12/12 05:45:13;;;;;;;;;10.00;7.50;;;;;14.67;95.73;100129.34;5037252;28;63743;-67
2023/12/12 05:47:40;;;;;;;;;10.75;9.75;;;;;14.66;95.93;100127.59;5037617;28;45288;-67
2023/12/12 05:50:06;;;;;;;;;12.00;10.00;;;;;14.68;95.80;100132.88;5046090;28;46109;-67
2023/12/12 05:52:31;;;;;;;;;9.50;8.75;;;;;14.71;95.45;100138.94;5045264;28;45506;-67
2023/12/12 05:54:57;;;;;;;;;13.00;10.00;;;;;14.64;95.51;100132.19;5051887;28;45389;-67
2023/12/12 05:57:22;;;;;;;;;12.75;10.75;;;;;14.62;95.67;100126.91;5057815;28;45397;-67
2023/12/12 05:59:48;;;;;;;;;10.75;10.00;;;;;14.64;95.81;100127.69;5054912;28;46435;-67
2023/12/12 06:02:14;;;;;;;;;12.25;10.25;;;;;14.65;95.92;100109.75;5041243;28;45708;-67
2023/12/12 06:04:39;;;;;;;;;9.50;9.25;;;;;14.64;96.04;100125.00;5036536;28;45357;-68
2023/12/12 06:07:05;;;;;;;;;9.00;7.25;;;;;14.62;96.20;100110.78;5026364;28;45417;-67
2023/12/12 06:09:31;;;;;;;;;10.00;10.00;;;;;14.68;95.80;100122.97;5059553;28;45367;-67
2023/12/12 06:11:58;;;;;;;;;8.75;7.75;;;;;14.69;96.14;100121.19;5060769;28;45237;-67
2023/12/12 06:14:23;;;;;;;;;7.75;7.75;;;;;14.60;95.77;100109.13;5041320;28;45243;-67
2023/12/12 06:16:49;;;;;;;;;9.75;8.50;;;;;14.71;95.77;100120.13;5041507;28;45356;-67
2023/12/12 06:19:14;;;;;;;;;10.25;9.50;;;;;14.62;96.08;100099.19;5049645;28;55249;-68
2023/12/12 06:21:39;;;;;;;;;10.75;8.00;;;;;14.72;95.90;100104.88;5055373;28;70415;-67
2023/12/12 06:24:05;;;;;;;;;10.00;9.50;;;;;14.73;95.76;100117.34;5024688;28;57513;-67
2023/12/12 06:26:31;;;;;;;;;10.25;9.25;;;;;14.66;96.05;100100.72;5040723;28;45547;-68
2023/12/12 06:28:56;;;;;;;;;14.25;14.25;;;;;14.66;96.02;100095.34;5006003;28;47500;-67
2023/12/12 06:31:23;;;;;;;;;11.50;9.75;;;;;14.62;96.19;100083.09;5022773;28;45980;-67
2023/12/12 06:33:49;;;;;;;;;11.75;11.00;;;;;14.72;96.27;100086.94;5040658;28;45406;-68
2023/12/12 06:36:15;;;;;;;;;10.75;7.75;;;;;14.64;96.11;100086.53;5040770;28;45549;-68
2023/12/12 06:38:40;;;;;;;;;10.00;9.00;;;;;14.75;95.64;100113.63;5039851;28;47605;-67
2023/12/12 06:41:05;;;;;;;;;9.50;9.50;;;;;14.72;95.73;100105.75;5060489;28;45430;-67
2023/12/12 06:43:31;;;;;;;;;8.25;8.00;;;;;14.78;95.86;100116.13;5038028;28;45419;-68
2023/12/12 06:45:57;;;;;;;;;11.50;10.00;;;;;14.80;95.99;100103.47;5048857;28;45471;-67
2023/12/12 06:48:22;;;;;;;;;9.50;8.25;;;;;14.73;95.74;100094.03;5046216;28;46272;-67
2023/12/12 06:50:47;;;;;;;;;11.50;11.50;;;;;14.74;95.93;100095.75;5052339;28;45218;-67
2023/12/12 06:53:13;;;;;;;;;9.25;9.25;;;;;14.73;95.90;100090.47;5040187;28;58908;-67
2023/12/12 06:55:38;;;;;;;;;8.50;8.50;;;;;14.71;95.88;100087.88;5039653;28;60682;-66
2023/12/12 06:58:04;;;;;;;;;7.50;7.50;;;;;14.74;96.09;100086.84;5027133;28;68316;-67
2023/12/12 07:00:30;;;;;;;;;9.50;9.50;;;;;14.73;96.36;100096.72;5039601;28;45478;-67
2023/12/12 07:02:55;;;;;;;;;8.75;8.50;;;;;14.75;96.37;100097.50;5047492;28;45318;-67
2023/12/12 07:05:21;;;;;;;;;10.25;9.00;;;;;14.66;96.47;100079.25;5033099;28;45793;-67
2023/12/12 07:07:47;;;;;;;;;7.00;6.75;;;;;14.67;96.87;100097.09;5029636;28;47475;-67
2023/12/12 07:10:13;;;;;;;;;6.75;6.00;;;;;14.72;96.89;100097.69;5033600;28;45888;-67
2023/12/12 07:12:38;;;;;;;;;11.00;8.25;;;;;14.65;96.80;100082.91;5050051;28;45468;-67
2023/12/12 07:15:04;;;;;;;;;8.25;8.00;;;;;14.75;96.90;100116.31;5039922;28;45484;-66
2023/12/12 07:17:29;;;;;;;;;8.25;8.25;;;;;14.74;96.75;100111.03;5050203;28;45480;-67
2023/12/12 07:19:55;;;;;;;;;10.00;7.75;;;;;14.78;96.83;100121.50;5030186;28;45523;-67
2023/12/12 07:22:21;;;;;;;;;11.50;8.50;;;;;14.67;96.86;100099.78;5052108;28;45844;-67
2023/12/12 07:24:46;;;;;;;;;12.75;9.00;;;;;14.66;96.54;100107.94;5046729;28;45625;-67
2023/12/12 07:27:12;;;;;;;;;9.00;8.50;;;;;14.75;96.95;100118.13;5049100;28;46212;-67
2023/12/12 07:29:38;;;;;;;;;7.00;7.00;;;;;14.72;96.83;100110.25;5050035;28;45580;-67
2023/12/12 07:32:03;;;;;;;;;8.00;7.50;;;;;14.67;96.70;100102.47;5039245;28;45344;-67
2023/12/12 07:34:29;;;;;;;;;7.25;7.25;;;;;14.80;96.64;100106.16;5053197;28;45704;-67
2023/12/12 07:36:54;;;;;;;;;8.50;8.00;;;;;14.72;96.83;100116.50;5038856;28;45617;-67
2023/12/12 07:39:19;;;;;;;;;7.75;6.75;;;;;14.71;96.89;100112.06;5028952;28;64746;-67
2023/12/12 07:41:45;;;;;;;;;8.00;7.75;;;;;14.67;96.65;100102.47;5044625;28;45383;-67
2023/12/12 07:44:11;;;;;;;;;5.75;5.75;;;;;14.68;96.60;100092.59;5047519;28;45466;-67
2023/12/12 07:46:39;;;;;;;;;6.75;6.75;;;;;14.84;96.68;100111.34;5046349;28;46250;-67
2023/12/12 07:49:06;;;;;;;;;7.00;6.00;;;;;14.76;96.52;100104.59;5041387;28;45608;-67
2023/12/12 07:51:32;;;;;;;;;7.75;7.75;;;;;14.86;96.58;100117.50;5050215;28;45493;-67
2023/12/12 07:53:58;;;;;;;;;9.00;8.00;;;;;14.84;96.66;100114.03;5039383;28;45368;-66
2023/12/12 07:56:23;;;;;;;;;8.25;8.25;;;;;14.87;96.59;100116.50;5040205;28;46124;-67
2023/12/12 07:58:48;;;;;;;;;7.00;7.00;;;;;14.86;96.44;100117.50;5038289;28;45360;-67
2023/12/12 08:01:15;;;;;;;;;6.00;6.00;;;;;14.79;95.90;100100.88;5055766;28;58448;-66
2023/12/12 08:03:41;;;;;;;;;5.00;5.00;;;;;14.84;96.35;100108.66;5058471;28;45395;-66
2023/12/12 08:06:07;;;;;;;;;4.50;4.50;;;;;14.85;96.28;100113.06;5039695;28;45946;-66
2023/12/12 08:08:32;;;;;;;;;3.00;3.00;;;;;14.85;96.32;100116.63;5053735;28;45587;-66
2023/12/12 08:10:58;;;;;;;;;5.50;5.50;;;;;14.86;96.23;100115.66;5038676;28;45422;-66
2023/12/12 08:13:23;;;;;;;;;4.00;3.25;;;;;14.83;96.13;100107.78;5049809;28;45629;-66
2023/12/12 08:15:49;;;;;;;;;3.25;3.25;;;;;14.82;96.41;100100.69;5049295;28;45422;-66
2023/12/12 08:18:14;;;;;;;;;7.00;3.75;;;;;14.89;96.34;100110.09;5046777;28;45522;-67
2023/12/12 08:20:39;;;;;;;;;5.00;3.00;;;;;14.85;96.31;100094.25;5051938;28;45529;-67
2023/12/12 08:23:05;;;;;;;;;4.75;4.25;;;;;14.87;96.32;100103.97;5033680;28;45528;-67
2023/12/12 08:25:30;;;;;;;;;6.00;5.00;;;;;14.83;96.27;100099.72;5048422;28;45359;-67
2023/12/12 08:27:57;;;;;;;;;4.00;4.00;;;;;14.89;96.31;100112.78;5050550;28;46208;-67
2023/12/12 08:30:23;;;;;;;;;4.50;4.50;;;;;14.78;96.53;100088.38;5036616;28;45455;-66
2023/12/12 08:32:48;;;;;;;;;3.75;3.75;;;;;14.87;96.29;100092.31;5034652;28;45460;-67
2023/12/12 08:35:13;;;;;;;;;2.75;2.75;;;;;14.82;96.06;100088.09;5053160;28;61127;-66
2023/12/12 08:37:40;;;;;;;;;5.75;4.75;;;;;14.94;95.93;100118.75;5039899;28;45589;-67
2023/12/12 08:40:05;;;;;;;;;3.75;3.75;;;;;14.84;95.86;100096.06;5052962;28;45345;-67
2023/12/12 08:42:32;;;;;;;;;3.75;2.75;;;;;14.94;96.03;100109.84;5031721;28;45518;-66
2023/12/12 08:44:57;;;;;;;;;4.25;3.00;;;;;14.93;95.88;100113.47;5037902;28;46990;-67
2023/12/12 08:47:23;;;;;;;;;5.50;5.00;;;;;14.77;95.91;100084.84;5047830;28;45505;-66
2023/12/12 08:49:48;;;;;;;;;2.75;2.75;;;;;14.79;95.60;100085.59;5045877;28;45464;-67
2023/12/12 08:52:14;;;;;;;;;4.00;4.00;;;;;14.97;96.00;100117.72;5049579;28;45495;-67
2023/12/12 08:54:43;;;;;;;;;5.00;5.00;;;;;14.78;95.69;100089.28;5021361;28;48195;-67
2023/12/12 08:57:10;;;;;;;;;5.25;4.50;;;;;14.91;95.85;100110.00;5036439;28;45352;-66
2023/12/12 08:59:38;;;;;;;;;6.00;5.00;;;;;14.82;95.89;100103.38;5048665;28;45439;-67
2023/12/12 09:02:03;;;;;;;;;4.25;3.50;;;;;14.89;95.92;100110.09;5051125;28;45493;-66
2023/12/12 09:04:29;;;;;;;;;3.00;3.00;;;;;14.96;96.02;100122.19;5047679;28;45500;-67
2023/12/12 09:06:54;;;;;;;;;3.00;2.25;;;;;14.81;95.96;100090.88;5042355;28;45515;-67
2023/12/12 09:09:20;;;;;;;;;3.50;2.00;;;;;14.85;96.17;100095.13;5054321;28;45599;-67
2023/12/12 09:11:47;;;;;;;;;2.25;2.25;;;;;15.03;95.69;100119.16;5039782;28;45409;-66
2023/12/12 09:14:13;;;;;;;;;2.00;2.00;;;;;14.80;95.67;100087.34;5037566;28;48024;-67
2023/12/12 09:16:38;;;;;;;;;2.00;2.00;;;;;14.89;95.83;100098.50;5023023;28;45487;-66
2023/12/12 09:19:03;;;;;;;;;3.75;2.75;;;;;14.84;95.74;100093.41;5030565;28;45432;-67
2023/12/12 09:21:29;;;;;;;;;2.75;2.75;;;;;14.86;95.77;100096.84;5054442;28;50934;-66
2023/12/12 09:23:54;;;;;;;;;2.00;2.00;;;;;14.87;95.69;100098.59;5034087;28;47058;-67
2023/12/12 09:26:20;;;;;;;;;1.50;1.25;;;;;14.90;95.87;100097.53;5051004;28;45416;-67
2023/12/12 09:28:45;;;;;;;;;3.00;3.00;;;;;14.87;95.90;100090.53;5049478;28;45360;-67
2023/12/12 09:31:11;;;;;;;;;2.00;2.00;;;;;14.85;95.91;100079.00;5052296;28;45432;-67
2023/12/12 09:33:37;;;;;;;;;1.00;1.00;;;;;14.82;95.69;100074.69;5037656;28;46120;-67
2023/12/12 09:36:04;;;;;;;;;1.00;1.00;;;;;14.88;95.45;100083.31;5055542;28;45492;-67
2023/12/12 09:38:29;;;;;;;;;1.25;1.25;;;;;14.93;95.82;100090.13;5036772;28;45371;-67
2023/12/12 09:40:56;;;;;;;;;1.00;1.00;;;;;14.92;95.55;100088.41;5058262;28;45432;-67
2023/12/12 09:43:26;;;;;;;;;2.00;1.00;;;;;14.91;95.79;100083.13;5054493;28;45501;-67
2023/12/12 09:45:55;;;;;;;;;1.00;1.00;;;;;14.95;95.79;100090.03;5045306;28;45570;-67
2023/12/12 09:48:21;;;;;;;;;3.00;2.00;;;;;15.07;95.98;100107.22;5059566;28;45382;-67
2023/12/12 09:50:47;;;;;;;;;2.00;2.00;;;;;14.91;96.06;100081.31;5025532;28;45990;-66
2023/12/12 09:53:13;;;;;;;;;3.00;2.25;;;;;14.90;96.13;100071.53;5047668;28;46427;-66
2023/12/12 09:55:40;;;;;;;;;1.75;1.75;;;;;14.96;96.09;100078.34;5039748;28;45427;-66
2023/12/12 09:58:06;;;;;;;;;1.00;1.00;;;;;15.13;96.01;100099.66;5050511;28;45723;-67
2023/12/12 10:00:32;;;;;;;;;1.00;1.00;;;;;14.98;95.98;100080.00;5048103;28;45601;-66
2023/12/12 10:03:00;;;;;;;;;0.75;0.75;;;;;15.12;96.04;100095.25;5042414;28;45488;-67
2023/12/12 10:05:33;;;;;;;;;0.00;0.00;;;;;15.16;96.15;100112.06;5052486;28;45803;-67
2023/12/12 10:08:01;;;;;;;;;0.75;0.75;;;;;14.99;95.96;100084.38;5038905;28;45489;-66
2023/12/12 10:10:27;;;;;;;;;2.00;2.00;;;;;14.96;95.81;100070.28;5039876;28;45415;-66
2023/12/12 10:12:52;;;;;;;;;1.50;1.50;;;;;15.16;95.69;100106.69;5038341;28;46144;-66
2023/12/12 10:15:25;;;;;;;;;1.00;1.00;;;;;15.05;95.50;100085.84;5038850;28;45375;-67
2023/12/12 10:17:57;;;;;;;;;1.75;0.00;;;;;15.16;95.51;100094.09;5048613;28;45501;-66
2023/12/12 10:20:27;;;;;;;;;1.00;1.00;;;;;15.16;95.30;100090.56;5051119;28;45558;-67
2023/12/12 10:23:01;;;;;;;;;0.25;0.25;;;;;14.93;95.12;100052.50;5040451;28;45640;-67
2023/12/12 10:25:34;;;;;;;;;1.00;0.50;;;;;15.03;94.83;100073.47;5053295;28;45437;-67
2023/12/12 10:28:00;;;;;;;;;0.75;0.75;;;;;15.01;94.69;100062.81;5040227;28;45431;-67
2023/12/12 10:30:26;;;;;;;;;1.00;1.00;;;;;14.95;94.58;100044.34;5070642;28;45417;-66
2023/12/12 10:32:53;;;;;;;;;0.00;0.00;;;;;15.06;93.90;100054.47;5054739;28;45614;-67
2023/12/12 10:35:23;;;;;;;;;1.00;1.00;;;;;15.08;94.17;100047.16;5052602;28;45555;-66
2023/12/12 10:37:49;;;;;;;;;1.00;1.00;;;;;15.06;94.02;100049.94;5042403;28;45466;-67
2023/12/12 10:40:21;;;;;;;;;0.25;0.00;;;;;15.03;93.99;100039.38;5054645;28;45360;-66
2023/12/12 10:42:50;;;;;;;;;0.25;0.25;;;;;15.24;93.66;100080.19;5039919;28;46982;-66
2023/12/12 10:45:16;;;;;;;;;2.00;1.75;;;;;15.06;93.63;100049.94;5053920;28;45458;-67
2023/12/12 10:47:44;;;;;;;;;0.00;0.00;;;;;15.28;93.46;100070.97;5052942;28;45342;-66
2023/12/12 10:50:13;;;;;;;;;0.00;0.00;;;;;15.20;93.64;100051.75;5040360;28;45332;-67
2023/12/12 10:52:39;;;;;;;;;0.00;0.00;;;;;15.07;93.22;100038.25;5053379;28;46409;-67
2023/12/12 10:55:06;;;;;;;;;1.00;0.75;;;;;15.17;93.24;100055.53;5040107;28;45461;-67
2023/12/12 10:57:32;;;;;;;;;0.00;0.00;;;;;15.27;92.97;100063.00;5056830;28;45488;-67
2023/12/12 10:59:58;;;;;;;;;2.00;1.00;;;;;15.15;92.99;100044.00;5041591;28;45533;-67
2023/12/12 11:02:23;;;;;;;;;3.00;0.00;;;;;15.08;92.66;100028.34;5039407;28;47554;-67
2023/12/12 11:04:49;;;;;;;;;2.00;1.00;;;;;15.24;92.71;100056.00;5067825;28;45389;-66
2023/12/12 11:07:15;;;;;;;;;0.00;0.00;;;;;15.11;92.53;100022.78;5052113;28;45490;-67
2023/12/12 11:09:41;;;;;;;;;1.00;0.00;;;;;15.16;92.26;100037.66;5044154;28;45339;-66
2023/12/12 11:12:08;;;;;;;;;0.00;0.00;;;;;15.08;92.21;100020.28;5042983;28;45537;-67